createdAt,value
2023-02-03T00:02:05.355Z,96687.97
2023-02-03T00:12:11.923Z,96716.41
2023-02-03T00:22:18.194Z,96716.22
2023-02-03T00:32:24.633Z,96727.34
2023-02-03T00:42:31.089Z,96760.78
2023-02-03T00:52:37.582Z,96767.34
2023-02-03T01:02:43.961Z,96784.00
2023-02-03T01:12:50.301Z,96783.19
2023-02-03T01:22:56.623Z,96794.00
2023-02-03T01:33:03.247Z,96820.81
2023-02-03T01:43:11.547Z,96832.94
2023-02-03T01:53:17.887Z,96846.56
2023-02-03T02:03:37.619Z,96834.75
2023-02-03T02:13:44.689Z,96848.84
2023-02-03T02:24:09.350Z,96841.81
2023-02-03T02:34:37.650Z,96831.03
2023-02-03T02:44:50.811Z,96846.22
2023-02-03T02:55:02.971Z,96864.09
2023-02-03T03:05:11.110Z,96844.00
2023-02-03T03:15:23.425Z,96834.72
2023-02-03T03:25:35.728Z,96850.91
2023-02-03T03:35:51.401Z,96836.56
2023-02-03T03:46:05.375Z,96840.03
2023-02-03T03:56:15.336Z,96798.47
2023-02-03T04:06:21.891Z,96773.91
2023-02-03T04:16:28.259Z,96767.44
2023-02-03T04:26:34.595Z,96751.12
2023-02-03T04:36:40.894Z,96714.66
2023-02-03T04:46:47.245Z,96701.34
2023-02-03T04:56:53.675Z,96687.06
2023-02-03T05:07:00.563Z,96662.59
2023-02-03T05:17:06.912Z,96624.00
2023-02-03T05:27:13.360Z,96600.69
2023-02-03T05:37:19.671Z,96565.94
2023-02-03T05:47:26.018Z,96539.25
2023-02-03T05:57:32.747Z,96523.13
2023-02-03T06:07:39.205Z,96494.19
2023-02-03T06:17:47.275Z,96477.34
2023-02-03T06:27:53.692Z,96454.16
2023-02-03T06:38:00.018Z,96459.41
2023-02-03T06:48:06.475Z,96448.53
2023-02-03T06:58:12.838Z,96450.63
2023-02-03T07:08:19.101Z,96447.00
2023-02-03T07:28:54.001Z,96465.06
2023-02-03T07:39:00.501Z,96473.78
2023-02-03T07:49:07.229Z,96514.81
2023-02-03T07:59:13.552Z,96557.25
2023-02-03T08:09:19.873Z,96586.25
2023-02-03T08:19:26.156Z,96606.16
2023-02-03T08:29:32.426Z,96645.09
2023-02-03T08:39:39.540Z,96647.94
2023-02-03T08:49:46.603Z,96611.03
2023-02-03T08:59:52.905Z,96568.72
2023-02-03T09:09:59.189Z,96493.00
2023-02-03T09:20:06.233Z,96429.31
2023-02-03T09:30:14.001Z,96379.97
2023-02-03T09:40:24.808Z,96273.69
2023-02-03T09:50:34.506Z,96179.59
2023-02-03T10:01:02.779Z,96066.53
2023-02-03T10:11:39.425Z,95915.00
2023-02-03T10:21:49.749Z,95832.37
2023-02-03T10:31:58.945Z,95677.50
2023-02-03T10:42:06.579Z,95511.56
2023-02-03T10:52:32.913Z,95358.50
2023-02-03T11:02:39.325Z,95211.94
2023-02-03T11:12:46.022Z,95079.19
2023-02-03T11:22:52.372Z,94949.13
2023-02-03T11:33:02.205Z,94766.72
2023-02-03T11:43:19.277Z,94625.72
2023-02-03T11:53:28.577Z,94496.56
2023-02-03T12:04:01.774Z,94386.72
2023-02-03T12:14:38.574Z,94279.00
2023-02-03T12:25:01.864Z,94178.44
2023-02-03T12:35:22.525Z,94068.56
2023-02-03T12:45:32.397Z,93979.53
2023-02-03T12:55:53.345Z,93881.22
2023-02-03T13:06:25.821Z,93802.88
2023-02-03T13:16:36.822Z,93723.72
2023-02-03T13:26:49.791Z,93654.63
2023-02-03T13:37:24.425Z,93539.38
2023-02-03T13:47:32.608Z,93398.31
2023-02-03T13:57:39.827Z,93263.00
2023-02-03T14:07:46.151Z,93143.84
2023-02-03T14:17:52.381Z,93040.16
2023-02-03T14:28:27.772Z,92922.09
2023-02-03T14:38:34.598Z,92785.44
2023-02-03T14:49:17.218Z,92697.56
2023-02-03T14:59:26.505Z,92568.31
2023-02-03T15:09:49.150Z,92504.53
2023-02-03T15:19:55.797Z,92429.06
2023-02-03T15:30:17.839Z,92324.97
2023-02-03T15:40:25.416Z,92184.78
2023-02-03T15:50:35.409Z,92048.75
2023-02-03T16:00:42.524Z,91956.22
2023-02-03T16:10:49.131Z,91888.72
2023-02-03T16:20:55.523Z,91758.03
2023-02-03T16:31:23.397Z,91690.84
2023-02-03T16:41:48.276Z,91674.44
2023-02-03T16:51:54.947Z,91621.59
2023-02-03T17:02:01.388Z,91603.91
2023-02-03T17:12:07.921Z,91582.06
2023-02-03T17:22:14.281Z,91602.72
2023-02-03T17:32:20.795Z,91650.78
2023-02-03T18:03:08.981Z,91687.03
2023-02-03T18:13:15.415Z,91693.72
2023-02-03T18:23:22.142Z,91724.94
2023-02-03T18:33:29.216Z,91707.00
2023-02-03T18:43:35.515Z,91696.38
2023-02-03T18:53:42.059Z,91658.19
2023-02-03T19:03:48.461Z,91640.91
2023-02-03T19:13:55.018Z,91610.19
2023-02-03T19:24:01.604Z,91592.25
2023-02-03T19:34:08.014Z,91579.53
2023-02-03T19:44:14.868Z,91247.06
2023-02-03T19:54:21.342Z,91137.41
2023-02-03T20:04:30.195Z,91089.88
2023-02-03T20:14:36.817Z,91011.44
2023-02-03T20:24:43.349Z,90914.53
2023-02-03T20:35:08.603Z,90809.87
2023-02-03T20:45:18.302Z,90731.06
2023-02-03T20:55:25.267Z,90643.03
2023-02-03T21:05:43.332Z,90585.69
2023-02-03T21:15:51.550Z,90508.00
2023-02-03T21:25:57.935Z,90428.44
2023-02-03T21:36:04.684Z,90313.22
2023-02-03T21:46:19.119Z,90252.66
2023-02-03T21:56:31.516Z,90129.47
2023-02-03T22:06:45.888Z,89996.84
2023-02-03T22:16:52.291Z,89876.31
2023-02-03T22:27:01.367Z,89756.84
2023-02-03T22:37:07.660Z,89657.31
2023-02-03T22:47:13.917Z,89439.41
2023-02-03T22:57:20.209Z,89354.84
2023-02-03T23:07:26.621Z,89201.41
2023-02-03T23:17:33.436Z,89163.06
2023-02-03T23:27:39.900Z,89136.47
2023-02-03T23:37:46.524Z,89107.81
2023-02-03T23:47:52.823Z,89029.56
2023-02-03T23:57:59.102Z,88909.84
